createdAt,value
2014-08-27T00:00:30.328Z,76.65
2014-08-27T00:01:35.034Z,76.68
2014-08-27T00:02:39.707Z,76.23
2014-08-27T00:03:44.397Z,76.52
2014-08-27T00:04:49.071Z,75.73
2014-08-27T00:05:53.761Z,75.81
2014-08-27T00:06:58.450Z,75.88
2014-08-27T00:08:03.124Z,75.89
2014-08-27T00:09:08.110Z,76.06
2014-08-27T00:10:12.800Z,76.23
2014-08-27T00:11:17.474Z,75.82
2014-08-27T00:12:22.460Z,75.8
2014-08-27T00:13:27.134Z,75.92
2014-08-27T00:14:32.121Z,76.48
2014-08-27T00:15:36.810Z,76.48
2014-08-27T00:16:41.484Z,75.92
2014-08-27T00:17:46.174Z,75.98
2014-08-27T00:18:50.848Z,76.46
2014-08-27T00:19:55.538Z,76.55
2014-08-27T00:21:00.227Z,76.41
2014-08-27T00:22:04.901Z,76.93
2014-08-27T00:23:09.590Z,76.5
2014-08-27T00:24:14.280Z,76.2
2014-08-27T00:25:19.251Z,75.66
2014-08-27T00:26:23.941Z,75.86
2014-08-27T00:27:28.614Z,76.34
2014-08-27T00:28:33.304Z,76.16
2014-08-27T00:29:37.978Z,76.21
2014-08-27T00:30:42.667Z,75.97
2014-08-27T00:31:47.356Z,76.17
2014-08-27T00:32:52.047Z,75.87
2014-08-27T00:33:56.720Z,76.12
2014-08-27T00:35:01.409Z,76.08
2014-08-27T00:36:06.084Z,76.32
2014-08-27T00:37:10.773Z,76.15
2014-08-27T00:38:15.744Z,76.35
2014-08-27T00:39:20.731Z,76.14
2014-08-27T00:40:25.717Z,76.06
2014-08-27T00:41:30.704Z,76.36
2014-08-27T00:42:35.394Z,76.18
2014-08-27T00:43:40.083Z,76.34
2014-08-27T00:44:44.773Z,76.01
2014-08-27T00:45:49.446Z,76.49
2014-08-27T00:46:54.136Z,76.71
2014-08-27T00:47:59.123Z,76.38
2014-08-27T00:49:03.796Z,76.33
2014-08-27T00:50:08.486Z,75.86
2014-08-27T00:51:13.473Z,76.2
2014-08-27T00:52:18.146Z,76.46
2014-08-27T00:53:22.836Z,76.4
2014-08-27T00:54:27.510Z,76.93
2014-08-27T00:55:32.199Z,76.67
2014-08-27T00:56:37.201Z,76.41
2014-08-27T00:57:41.891Z,76.72
2014-08-27T00:58:46.565Z,76.32
2014-08-27T00:59:51.254Z,75.9
2014-08-27T01:00:55.944Z,76.31
2014-08-27T01:02:00.619Z,75.95
2014-08-27T01:03:05.307Z,75.77
2014-08-27T01:04:09.997Z,76.12
2014-08-27T01:05:15.281Z,75.95
2014-08-27T01:06:19.954Z,75.82
2014-08-27T01:07:24.941Z,76.19
2014-08-27T01:08:29.631Z,76.28
2014-08-27T01:09:34.320Z,76.55
2014-08-27T01:10:38.994Z,76.61
2014-08-27T01:11:43.683Z,76.48
2014-08-27T01:12:48.373Z,76.55
2014-08-27T01:13:53.047Z,75.95
2014-08-27T01:14:57.737Z,75.8
2014-08-27T01:16:02.426Z,75.72
2014-08-27T01:17:07.100Z,75.63
2014-08-27T01:18:11.790Z,76.25
2014-08-27T01:19:16.776Z,75.68
2014-08-27T01:20:21.466Z,75.88
2014-08-27T01:21:26.437Z,75.27
2014-08-27T01:22:31.126Z,75.67
2014-08-27T01:23:36.113Z,75.85
2014-08-27T01:24:41.099Z,75.7
2014-08-27T01:25:45.773Z,75.7
2014-08-27T01:26:50.462Z,76.23
2014-08-27T01:27:55.152Z,76.04
2014-08-27T01:28:59.826Z,76.01
2014-08-27T01:30:04.516Z,75.97
2014-08-27T01:31:09.206Z,76.25
2014-08-27T01:32:13.879Z,76.07
2014-08-27T01:33:18.569Z,76.04
2014-08-27T01:34:23.556Z,76.53
2014-08-27T01:35:28.245Z,76.79
2014-08-27T01:36:32.919Z,76.85
2014-08-27T01:37:37.905Z,76.67
2014-08-27T01:38:41.907Z,76.24
2014-08-27T01:39:46.581Z,76.45
2014-08-27T01:40:51.271Z,76.09
2014-08-27T01:41:55.961Z,76.21
2014-08-27T01:43:00.634Z,76.23
2014-08-27T01:44:05.621Z,75.51
2014-08-27T01:45:10.607Z,76.09
2014-08-27T01:46:15.593Z,75.45
2014-08-27T01:47:20.346Z,75.61
2014-08-27T01:48:25.035Z,75.76
2014-08-27T01:49:29.725Z,76.04
2014-08-27T01:50:34.712Z,76.17
2014-08-27T01:51:39.401Z,75.95
2014-08-27T01:52:44.075Z,75.76
2014-08-27T01:53:48.764Z,75.48
2014-08-27T01:54:53.454Z,75.57
2014-08-27T01:55:58.128Z,75.35
2014-08-27T01:57:02.817Z,75.38
2014-08-27T01:58:06.819Z,75.84
2014-08-27T01:59:11.806Z,76.1
2014-08-27T02:00:16.496Z,76.2
2014-08-27T02:01:21.466Z,75.57
2014-08-27T02:02:26.453Z,75.53
2014-08-27T02:03:31.142Z,76.12
2014-08-27T02:04:35.831Z,76.31
2014-08-27T02:05:40.803Z,76
2014-08-27T02:06:45.493Z,75.85
2014-08-27T02:07:50.479Z,75.39
2014-08-27T02:08:55.168Z,75.44
2014-08-27T02:09:59.842Z,75.86
2014-08-27T02:11:04.829Z,76.29
2014-08-27T02:12:09.519Z,76.36
2014-08-27T02:13:14.192Z,76.07
2014-08-27T02:14:18.883Z,76.1
2014-08-27T02:15:23.572Z,75.97
2014-08-27T02:16:28.245Z,75.55
2014-08-27T02:17:32.935Z,75.6
2014-08-27T02:18:37.625Z,75.82
2014-08-27T02:19:42.610Z,75.68
2014-08-27T02:20:47.301Z,76.13
2014-08-27T02:21:51.989Z,75.88
2014-08-27T02:22:56.664Z,76.04
2014-08-27T02:24:01.354Z,76.45
2014-08-27T02:25:06.043Z,76.6
2014-08-27T02:26:11.014Z,76.41
2014-08-27T02:27:16.000Z,76.57
2014-08-27T02:28:20.690Z,76.44
2014-08-27T02:29:25.379Z,76.29
2014-08-27T02:30:30.084Z,77.14
2014-08-27T02:31:35.056Z,76.88
2014-08-27T02:32:40.043Z,76.78
2014-08-27T02:33:44.716Z,76.4
2014-08-27T02:34:49.405Z,76.19
2014-08-27T02:35:54.079Z,76.08
2014-08-27T02:36:58.769Z,75.57
2014-08-27T02:38:03.443Z,75.45
2014-08-27T02:39:08.133Z,75.94
2014-08-27T02:40:12.807Z,76.06
2014-08-27T02:41:17.496Z,76.55
2014-08-27T02:42:22.186Z,76.28
2014-08-27T02:43:27.156Z,75.85
2014-08-27T02:44:32.143Z,76.63
2014-08-27T02:45:36.818Z,76.49
2014-08-27T02:46:41.507Z,76.58
2014-08-27T02:47:46.180Z,76.83
2014-08-27T02:48:50.870Z,76.43
2014-08-27T02:49:55.544Z,76.84
2014-08-27T02:51:00.233Z,76.95
2014-08-27T02:52:04.907Z,76.36
2014-08-27T02:53:09.597Z,76.21
2014-08-27T02:54:14.271Z,76.25
2014-08-27T02:55:18.961Z,76.28
2014-08-27T02:56:23.634Z,76.17
2014-08-27T02:57:28.324Z,75.95
2014-08-27T02:58:33.310Z,76.07
2014-08-27T02:59:37.984Z,76.3
2014-08-27T03:00:42.971Z,76.11
2014-08-27T03:01:47.645Z,76.06
2014-08-27T03:02:52.335Z,76.29
2014-08-27T03:03:57.008Z,76.16
2014-08-27T03:05:01.995Z,76.08
2014-08-27T03:06:06.685Z,76.37
2014-08-27T03:07:11.359Z,76.09
2014-08-27T03:08:16.345Z,75.82
2014-08-27T03:09:21.034Z,76.48
2014-08-27T03:10:25.708Z,76.53
2014-08-27T03:11:30.398Z,76.41
2014-08-27T03:12:35.072Z,76.34
2014-08-27T03:13:39.762Z,75.79
2014-08-27T03:14:44.435Z,75.74
2014-08-27T03:15:49.125Z,76.3
2014-08-27T03:16:53.799Z,76.27
2014-08-27T03:17:58.505Z,76.48
2014-08-27T03:19:03.178Z,76.02
2014-08-27T03:20:08.164Z,76.27
2014-08-27T03:21:13.150Z,76.38
2014-08-27T03:22:17.825Z,76.07
2014-08-27T03:23:22.811Z,76.06
2014-08-27T03:24:27.813Z,76.16
2014-08-27T03:25:32.487Z,76.46
2014-08-27T03:26:37.474Z,76.02
2014-08-27T03:27:42.149Z,76.3
2014-08-27T03:28:46.822Z,76.8
2014-08-27T03:29:51.511Z,75.92
2014-08-27T03:30:56.482Z,76.12
2014-08-27T03:32:01.172Z,75.92
2014-08-27T03:33:05.862Z,76.21
2014-08-27T03:34:10.848Z,76.5
2014-08-27T03:35:14.850Z,76.12
2014-08-27T03:36:19.524Z,76.52
2014-08-27T03:37:24.510Z,76.01
2014-08-27T03:38:29.184Z,76.29
2014-08-27T03:39:33.874Z,76.34
2014-08-27T03:40:38.844Z,76.33
2014-08-27T03:41:43.534Z,76.03
2014-08-27T03:42:48.208Z,75.96
2014-08-27T03:43:53.194Z,75.72
2014-08-27T03:44:57.868Z,75.73
2014-08-27T03:46:02.559Z,75.91
2014-08-27T03:47:07.248Z,75.76
2014-08-27T03:48:12.218Z,75.55
2014-08-27T03:49:16.907Z,75.68
2014-08-27T03:50:21.582Z,75.56
2014-08-27T03:51:26.272Z,75.5
2014-08-27T03:52:31.242Z,75.92
2014-08-27T03:53:35.932Z,76.22
2014-08-27T03:54:40.621Z,75.99
2014-08-27T03:55:45.592Z,75.92
2014-08-27T03:56:49.595Z,75.39
2014-08-27T03:57:54.268Z,75.88
2014-08-27T03:58:59.255Z,76.14
2014-08-27T04:00:03.929Z,76.14
2014-08-27T04:01:08.618Z,76.41
2014-08-27T04:02:13.605Z,76.08
2014-08-27T04:03:18.278Z,75.82
2014-08-27T04:04:22.968Z,75.89
2014-08-27T04:05:27.642Z,76.19
2014-08-27T04:06:32.332Z,75.87
2014-08-27T04:07:37.006Z,75.81
2014-08-27T04:08:41.992Z,75.68
2014-08-27T04:09:46.666Z,75.63
2014-08-27T04:10:51.356Z,75.55
2014-08-27T04:11:56.029Z,75.68
2014-08-27T04:13:00.719Z,76.31
2014-08-27T04:14:05.408Z,76.85
2014-08-27T04:15:10.083Z,76.46
2014-08-27T04:16:14.772Z,75.8
2014-08-27T04:17:19.446Z,75.48
2014-08-27T04:18:24.136Z,75.54
2014-08-27T04:19:28.810Z,75.4
2014-08-27T04:20:33.500Z,75.83
2014-08-27T04:21:38.486Z,75.8
2014-08-27T04:22:43.160Z,75.7
2014-08-27T04:23:47.848Z,76.25
2014-08-27T04:24:52.523Z,76.41
2014-08-27T04:25:57.213Z,76.26
2014-08-27T04:27:01.903Z,76.28
2014-08-27T04:28:06.592Z,75.93
2014-08-27T04:29:11.282Z,75.77
2014-08-27T04:30:15.955Z,75.54
2014-08-27T04:31:20.645Z,75.61
2014-08-27T04:32:25.319Z,75.87
2014-08-27T04:33:30.305Z,75.74
2014-08-27T04:34:34.979Z,75.89
2014-08-27T04:35:39.966Z,76.42
2014-08-27T04:36:44.656Z,76.32
2014-08-27T04:37:49.642Z,76.05
2014-08-27T04:38:54.316Z,76.12
2014-08-27T04:39:59.005Z,76.13
2014-08-27T04:41:03.976Z,76.4
2014-08-27T04:42:08.666Z,76.13
2014-08-27T04:43:13.340Z,76.09
2014-08-27T04:44:18.029Z,75.89
2014-08-27T04:45:22.703Z,76.12
2014-08-27T04:46:27.393Z,76.04
2014-08-27T04:47:32.083Z,76.15
2014-08-27T04:48:37.053Z,76.26
2014-08-27T04:49:41.743Z,76.4
2014-08-27T04:50:46.417Z,76.44
2014-08-27T04:51:51.106Z,76.56
2014-08-27T04:52:56.077Z,76.31
2014-08-27T04:54:00.766Z,76.6
2014-08-27T04:55:05.472Z,76.63
2014-08-27T04:56:10.161Z,76.21
2014-08-27T04:57:14.835Z,76.45
2014-08-27T04:58:19.525Z,76.56
2014-08-27T04:59:24.512Z,77.14
2014-08-27T05:00:29.185Z,76.89
2014-08-27T05:01:33.875Z,76.68
2014-08-27T05:02:38.549Z,77.04
2014-08-27T05:03:43.238Z,77
2014-08-27T05:04:47.912Z,77.14
2014-08-27T05:05:52.602Z,77.35
2014-08-27T05:06:57.276Z,77.24
2014-08-27T05:08:01.966Z,76.82
2014-08-27T05:09:06.639Z,76.65
2014-08-27T05:10:11.329Z,76.21
2014-08-27T05:11:16.003Z,75.92
2014-08-27T05:12:20.692Z,75.91
2014-08-27T05:13:25.366Z,75.56
2014-08-27T05:14:30.056Z,75.98
2014-08-27T05:15:34.731Z,75.84
2014-08-27T05:16:39.420Z,75.87
2014-08-27T05:17:44.390Z,76.07
2014-08-27T05:18:49.080Z,75.83
2014-08-27T05:19:53.770Z,75.88
2014-08-27T05:20:58.443Z,76.16
2014-08-27T05:22:03.430Z,76.71
2014-08-27T05:23:08.104Z,76.37
2014-08-27T05:24:12.809Z,76.48
2014-08-27T05:25:17.499Z,76.04
2014-08-27T05:26:22.172Z,76.2
2014-08-27T05:27:26.862Z,76.47
2014-08-27T05:28:31.536Z,76.63
2014-08-27T05:29:36.225Z,76.63
2014-08-27T05:30:40.899Z,76.5
2014-08-27T05:31:44.901Z,76.76
2014-08-27T05:32:49.575Z,76.5
2014-08-27T05:33:54.266Z,76.44
2014-08-27T05:34:58.955Z,76.69
2014-08-27T05:36:03.925Z,76.66
2014-08-27T05:37:08.615Z,76.83
2014-08-27T05:38:13.305Z,76.56
2014-08-27T05:39:17.978Z,76.18
2014-08-27T05:40:22.668Z,76.3
2014-08-27T05:41:27.342Z,76.55
2014-08-27T05:42:32.032Z,76.49
2014-08-27T05:43:36.705Z,76.39
2014-08-27T05:44:41.692Z,76.31
2014-08-27T05:45:46.381Z,75.99
2014-08-27T05:46:51.055Z,76.4
2014-08-27T05:47:55.729Z,76.06
2014-08-27T05:49:00.420Z,76.15
2014-08-27T05:50:05.093Z,76.14
2014-08-27T05:51:09.783Z,76.07
2014-08-27T05:52:14.456Z,75.49
2014-08-27T05:53:19.146Z,75.99
2014-08-27T05:54:23.836Z,76.22
2014-08-27T05:55:28.524Z,76.29
2014-08-27T05:56:33.199Z,76.31
2014-08-27T05:57:37.889Z,76.26
2014-08-27T05:58:42.564Z,76.11
2014-08-27T05:59:47.549Z,76.04
2014-08-27T06:00:52.238Z,75.71
2014-08-27T06:01:56.913Z,75.66
2014-08-27T06:03:01.602Z,75.52
2014-08-27T06:04:06.276Z,75.42
2014-08-27T06:05:11.263Z,75.48
2014-08-27T06:06:15.952Z,75.8
2014-08-27T06:07:20.626Z,75.64
2014-08-27T06:08:25.316Z,75.83
2014-08-27T06:09:29.990Z,76.11
2014-08-27T06:10:34.678Z,76.26
2014-08-27T06:11:39.369Z,76.31
2014-08-27T06:12:44.043Z,76.48
2014-08-27T06:13:48.733Z,76.64
2014-08-27T06:14:53.406Z,76.42
2014-08-27T06:15:58.096Z,76.18
2014-08-27T06:17:02.770Z,76.18
2014-08-27T06:18:07.459Z,76.15
2014-08-27T06:19:12.148Z,76.26
2014-08-27T06:20:17.135Z,76.39
2014-08-27T06:21:21.809Z,76.48
2014-08-27T06:22:26.499Z,76.66
2014-08-27T06:23:31.189Z,76.42
2014-08-27T06:24:35.878Z,77.04
2014-08-27T06:25:40.552Z,76.57
2014-08-27T06:26:45.538Z,76.44
2014-08-27T06:27:50.212Z,76.22
2014-08-27T06:28:54.902Z,75.57
2014-08-27T06:29:59.888Z,76.12
2014-08-27T06:31:04.578Z,76.21
2014-08-27T06:32:09.253Z,76.16
2014-08-27T06:33:13.941Z,75.65
2014-08-27T06:34:18.631Z,75.05
2014-08-27T06:35:23.305Z,75.45
2014-08-27T06:36:28.292Z,75.45
2014-08-27T06:37:32.980Z,75.3
2014-08-27T06:38:37.655Z,75.41
2014-08-27T06:39:42.642Z,75.5
2014-08-27T06:40:47.315Z,75.38
2014-08-27T06:41:52.005Z,75.58
2014-08-27T06:42:56.694Z,75.4
2014-08-27T06:44:01.665Z,75.11
2014-08-27T06:45:06.355Z,75.24
2014-08-27T06:46:11.045Z,75.83
2014-08-27T06:47:15.718Z,75.62
2014-08-27T06:48:20.409Z,75.61
2014-08-27T06:49:25.082Z,75.15
2014-08-27T06:50:29.771Z,75.02
2014-08-27T06:51:34.758Z,75.94
2014-08-27T06:52:39.432Z,75.98
2014-08-27T06:53:44.121Z,75.56
2014-08-27T06:54:48.811Z,75.6
2014-08-27T06:55:53.501Z,75.96
2014-08-27T06:56:58.175Z,76.12
2014-08-27T06:58:02.864Z,76.32
2014-08-27T06:59:07.850Z,76.4
2014-08-27T07:00:12.524Z,76.01
2014-08-27T07:01:17.214Z,76.02
2014-08-27T07:02:21.904Z,76.3
2014-08-27T07:03:26.593Z,76.27
2014-08-27T07:04:31.267Z,76.27
2014-08-27T07:05:35.957Z,75.42
2014-08-27T07:06:40.944Z,74.25
2014-08-27T07:07:45.633Z,74.52
2014-08-27T07:08:50.341Z,74.57
2014-08-27T07:09:55.074Z,74.39
2014-08-27T07:10:59.807Z,75.42
2014-08-27T07:12:04.821Z,75.28
2014-08-27T07:13:09.847Z,75.07
2014-08-27T07:14:14.568Z,75.65
2014-08-27T07:15:19.274Z,76.87
2014-08-27T07:16:24.557Z,76.19
2014-08-27T07:17:29.262Z,75.55
2014-08-27T07:18:33.962Z,76.03
2014-08-27T07:19:38.954Z,74.7
2014-08-27T07:20:43.649Z,74.97
2014-08-27T07:21:48.328Z,74.45
2014-08-27T07:22:53.320Z,73.68
2014-08-27T07:23:58.309Z,73.13
2014-08-27T07:25:03.000Z,73.38
2014-08-27T07:26:07.677Z,74.11
2014-08-27T07:27:12.368Z,73.63
2014-08-27T07:28:17.654Z,72.97
2014-08-27T07:29:22.640Z,72.56
2014-08-27T07:30:27.315Z,70.91
2014-08-27T07:31:32.006Z,72.76
2014-08-27T07:32:36.697Z,71.59
2014-08-27T07:33:41.371Z,71.82
2014-08-27T07:34:46.062Z,70.88
2014-08-27T07:35:50.751Z,71.68
2014-08-27T07:36:55.441Z,72.04
2014-08-27T07:38:00.115Z,72.56
2014-08-27T07:39:04.805Z,73.22
2014-08-27T07:40:09.791Z,73.36
2014-08-27T07:41:14.481Z,73.49
2014-08-27T07:42:19.452Z,73.1
2014-08-27T07:43:24.141Z,72.54
2014-08-27T07:44:29.127Z,71.74
2014-08-27T07:45:34.114Z,72.12
2014-08-27T07:46:38.788Z,72.58
2014-08-27T07:47:43.477Z,72.45
2014-08-27T07:48:48.167Z,72.81
2014-08-27T07:49:52.842Z,73.47
2014-08-27T07:50:57.546Z,72.82
2014-08-27T07:52:02.533Z,73.57
2014-08-27T07:53:07.503Z,73.34
2014-08-27T07:54:12.193Z,72.67
2014-08-27T07:55:16.883Z,73.18
2014-08-27T07:56:21.572Z,72.66
2014-08-27T07:57:26.262Z,72.47
2014-08-27T07:58:30.951Z,72.6
2014-08-27T07:59:35.625Z,72.47
2014-08-27T08:00:40.315Z,72.7
2014-08-27T08:01:45.301Z,72.62
2014-08-27T08:02:49.991Z,72.14
2014-08-27T08:03:54.681Z,71.63
2014-08-27T08:04:59.385Z,72.52
2014-08-27T08:06:04.075Z,71.13
2014-08-27T08:07:08.750Z,71.89
2014-08-27T08:08:13.439Z,71.11
2014-08-27T08:09:18.129Z,71.45
2014-08-27T08:10:22.818Z,71.85
2014-08-27T08:11:27.804Z,73.11
2014-08-27T08:12:32.494Z,70.85
2014-08-27T08:13:36.793Z,71.89
2014-08-27T08:14:41.482Z,71.81
2014-08-27T08:15:46.156Z,72.43
2014-08-27T08:16:51.143Z,72.01
2014-08-27T08:17:55.833Z,71.57
2014-08-27T08:19:00.522Z,71.05
2014-08-27T08:20:05.212Z,71.49
2014-08-27T08:21:09.917Z,71.2
2014-08-27T08:22:14.606Z,72
2014-08-27T08:23:19.296Z,70.33
2014-08-27T08:24:23.986Z,69.51
2014-08-27T08:25:28.675Z,69
2014-08-27T08:26:33.349Z,69.73
2014-08-27T08:27:38.039Z,69.31
2014-08-27T08:28:42.728Z,70.82
2014-08-27T08:29:47.714Z,69.81
2014-08-27T08:30:52.404Z,69.66
2014-08-27T08:31:57.078Z,70.55
2014-08-27T08:33:01.783Z,71.02
2014-08-27T08:34:06.489Z,71.45
2014-08-27T08:35:11.162Z,71.62
2014-08-27T08:36:15.852Z,72.39
2014-08-27T08:37:20.603Z,72.26
2014-08-27T08:38:25.591Z,70.42
2014-08-27T08:39:30.576Z,70.83
2014-08-27T08:40:35.251Z,71.73
2014-08-27T08:41:39.941Z,71.3
2014-08-27T08:42:44.630Z,71.13
2014-08-27T08:43:49.304Z,71.76
2014-08-27T08:44:53.993Z,72.34
2014-08-27T08:45:58.980Z,71.52
2014-08-27T08:47:03.669Z,71.05
2014-08-27T08:48:08.406Z,70.5
2014-08-27T08:49:13.393Z,70.4
2014-08-27T08:50:18.066Z,69.94
2014-08-27T08:51:23.069Z,70.77
2014-08-27T08:52:28.039Z,70.23
2014-08-27T08:53:32.729Z,70.28
2014-08-27T08:54:37.403Z,68.92
2014-08-27T08:55:42.389Z,68.79
2014-08-27T08:56:46.688Z,70.01
2014-08-27T08:57:51.378Z,70.11
2014-08-27T08:58:56.052Z,70.69
2014-08-27T09:00:00.741Z,71.11
2014-08-27T09:01:05.431Z,70.43
2014-08-27T09:02:10.106Z,70.65
2014-08-27T09:03:14.794Z,70.95
2014-08-27T09:04:19.484Z,71.44
2014-08-27T09:05:24.158Z,69.45
2014-08-27T09:06:29.144Z,69.07
2014-08-27T09:07:33.833Z,69.99
2014-08-27T09:08:38.508Z,70.85
2014-08-27T09:09:43.495Z,70.52
2014-08-27T09:10:48.168Z,70.75
2014-08-27T09:11:52.858Z,70.86
2014-08-27T09:12:57.547Z,69.77
2014-08-27T09:14:02.237Z,69.72
2014-08-27T09:15:06.911Z,69.77
2014-08-27T09:16:11.600Z,69.86
2014-08-27T09:17:16.290Z,70.33
2014-08-27T09:18:20.964Z,69.06
2014-08-27T09:19:25.951Z,69.58
2014-08-27T09:20:30.640Z,69.63
2014-08-27T09:21:35.314Z,70.12
2014-08-27T09:22:40.003Z,69.88
2014-08-27T09:23:44.692Z,69.2
2014-08-27T09:24:49.680Z,70.14
2014-08-27T09:25:54.353Z,69.27
2014-08-27T09:26:58.356Z,69.94
2014-08-27T09:28:03.030Z,69.24
2014-08-27T09:29:07.719Z,70.49
2014-08-27T09:30:12.393Z,70.36
2014-08-27T09:31:17.082Z,69.79
2014-08-27T09:32:22.069Z,69.42
2014-08-27T09:33:27.040Z,68.36
2014-08-27T09:34:31.729Z,67.71
2014-08-27T09:35:36.403Z,69.33
2014-08-27T09:36:41.093Z,67.94
2014-08-27T09:37:46.080Z,68.3
2014-08-27T09:38:50.753Z,68.16
2014-08-27T09:39:55.443Z,68.69
2014-08-27T09:41:00.430Z,66.9
2014-08-27T09:42:05.103Z,66.89
2014-08-27T09:43:09.793Z,66.56
2014-08-27T09:44:14.482Z,68.37
2014-08-27T09:45:19.156Z,66.52
2014-08-27T09:46:23.846Z,66.18
2014-08-27T09:47:28.520Z,67.24
2014-08-27T09:48:33.209Z,67.69
2014-08-27T09:49:37.899Z,67.3
2014-08-27T09:50:42.886Z,68.27
2014-08-27T09:51:47.856Z,67.16
2014-08-27T09:52:52.546Z,67.3
2014-08-27T09:55:11.377Z,66.97
2014-08-27T09:56:16.052Z,67.02
2014-08-27T09:57:21.039Z,67.06
2014-08-27T09:58:25.728Z,66.79
2014-08-27T09:59:30.402Z,67.06
2014-08-27T10:00:35.092Z,66.96
2014-08-27T10:01:39.766Z,66.51
2014-08-27T10:02:45.049Z,66.61
2014-08-27T10:03:49.739Z,66.48
2014-08-27T10:04:54.413Z,68.38
2014-08-27T10:05:58.415Z,68.33
2014-08-27T10:07:03.385Z,68.65
2014-08-27T10:08:08.075Z,66.83
2014-08-27T10:09:12.749Z,64.87
2014-08-27T10:10:17.736Z,65.28
2014-08-27T10:11:22.425Z,65.58
2014-08-27T10:12:27.396Z,65
2014-08-27T10:13:32.085Z,65.19
2014-08-27T10:14:36.759Z,66.79
2014-08-27T10:15:41.449Z,68.81
2014-08-27T10:16:46.139Z,67.96
2014-08-27T10:17:50.812Z,69.83
2014-08-27T10:18:55.503Z,70.47
2014-08-27T10:20:00.176Z,69.67
2014-08-27T10:21:05.162Z,69.96
2014-08-27T10:22:09.852Z,70.7
2014-08-27T10:23:14.526Z,71.05
2014-08-27T10:24:19.513Z,71.42
2014-08-27T10:25:24.202Z,70.99
2014-08-27T10:26:28.876Z,71.33
2014-08-27T10:27:33.565Z,70.43
2014-08-27T10:28:38.239Z,70.85
2014-08-27T10:29:42.929Z,70.02
2014-08-27T10:30:47.618Z,69.24
2014-08-27T10:31:52.293Z,68.24
2014-08-27T10:32:56.982Z,68.45
2014-08-27T10:34:01.672Z,69.8
2014-08-27T10:35:06.642Z,70.9
2014-08-27T10:36:11.332Z,68.82
2014-08-27T10:37:16.022Z,66.75
2014-08-27T10:38:20.993Z,66.29
2014-08-27T10:39:25.682Z,66.08
2014-08-27T10:40:30.372Z,65.67
2014-08-27T10:41:35.047Z,65.57
2014-08-27T10:42:39.735Z,67.68
2014-08-27T10:43:44.706Z,67.01
2014-08-27T10:44:49.396Z,66.07
2014-08-27T10:45:54.382Z,65.87
2014-08-27T10:46:59.072Z,66.43
2014-08-27T10:48:03.761Z,66.38
2014-08-27T10:49:08.732Z,65.24
2014-08-27T10:50:13.422Z,64.93
2014-08-27T10:51:18.110Z,65.35
2014-08-27T10:52:22.785Z,64.6
2014-08-27T10:53:27.475Z,63.98
2014-08-27T10:54:32.446Z,63.1
2014-08-27T10:55:37.135Z,64.33
2014-08-27T10:56:42.121Z,62.21
2014-08-27T10:57:46.795Z,63.03
2014-08-27T10:58:51.782Z,63.59
2014-08-27T10:59:56.472Z,62.73
2014-08-27T11:01:01.442Z,62.79
2014-08-27T11:02:06.132Z,66.27
2014-08-27T11:03:11.025Z,66.68
2014-08-27T11:04:15.698Z,64.66
2014-08-27T11:05:20.388Z,67.29
2014-08-27T11:06:25.078Z,66.85
2014-08-27T11:07:29.752Z,66.82
2014-08-27T11:08:34.441Z,66.94
2014-08-27T11:09:39.428Z,64.96
2014-08-27T11:10:44.118Z,64.84
2014-08-27T11:11:48.791Z,63.74
2014-08-27T11:12:53.481Z,62.64
2014-08-27T11:13:58.155Z,65.68
2014-08-27T11:15:02.844Z,66.92
2014-08-27T11:16:07.533Z,65.2
2014-08-27T11:17:12.208Z,64.28
2014-08-27T11:18:16.898Z,64.77
2014-08-27T11:19:21.571Z,67.69
2014-08-27T11:20:26.261Z,66.56
2014-08-27T11:21:31.248Z,68.23
2014-08-27T11:22:36.218Z,66.16
2014-08-27T11:23:40.908Z,66.21
2014-08-27T11:24:45.597Z,66.77
2014-08-27T11:25:50.287Z,66.52
2014-08-27T11:26:55.259Z,65.57
2014-08-27T11:27:59.947Z,64.37
2014-08-27T11:29:04.637Z,64.34
2014-08-27T11:30:09.311Z,64.55
2014-08-27T11:31:14.297Z,65.99
2014-08-27T11:32:18.986Z,65.76
2014-08-27T11:33:23.676Z,65.68
2014-08-27T11:34:28.365Z,64.18
2014-08-27T11:35:33.040Z,64.51
2014-08-27T11:36:37.729Z,64.64
2014-08-27T11:37:42.419Z,64.46
2014-08-27T11:38:47.093Z,63.78
2014-08-27T11:39:51.783Z,65.76
2014-08-27T11:40:56.472Z,64.38
2014-08-27T11:42:01.146Z,64.01
2014-08-27T11:43:05.852Z,64.71
2014-08-27T11:44:10.525Z,64.71
2014-08-27T11:45:15.215Z,63.96
2014-08-27T11:46:19.889Z,64.37
2014-08-27T11:47:24.578Z,64.16
2014-08-27T11:48:29.565Z,63.49
2014-08-27T11:49:34.255Z,63.35
2014-08-27T11:50:38.929Z,64.29
2014-08-27T11:51:43.931Z,62.97
2014-08-27T11:52:48.620Z,64.03
2014-08-27T11:53:53.294Z,63.62
2014-08-27T11:54:57.983Z,62.67
2014-08-27T11:56:02.673Z,61.7
2014-08-27T11:57:07.347Z,61.38
2014-08-27T11:58:12.036Z,62.82
2014-08-27T11:59:17.007Z,62.47
2014-08-27T12:00:21.698Z,63.28
2014-08-27T12:01:26.371Z,62.8
2014-08-27T12:02:31.060Z,62.6
2014-08-27T12:03:35.734Z,62.5
2014-08-27T12:04:40.424Z,62.99
2014-08-27T12:05:45.114Z,62.27
2014-08-27T12:06:50.100Z,62.68
2014-08-27T12:07:54.774Z,65.26
2014-08-27T12:08:59.464Z,62.69
2014-08-27T12:10:04.153Z,62.13
2014-08-27T12:11:08.827Z,61.63
2014-08-27T12:12:13.516Z,60.19
2014-08-27T12:13:18.503Z,61.25
2014-08-27T12:14:23.475Z,60.77
2014-08-27T12:15:28.179Z,61.71
2014-08-27T12:16:33.165Z,62.23
2014-08-27T12:17:37.168Z,60.79
2014-08-27T12:18:41.841Z,60.16
2014-08-27T12:19:46.531Z,62.15
2014-08-27T12:20:51.221Z,61.6
2014-08-27T12:21:55.909Z,62.68
2014-08-27T12:23:00.897Z,63.39
2014-08-27T12:24:05.570Z,62.41
2014-08-27T12:25:10.276Z,61.42
2014-08-27T12:26:14.965Z,59.83
2014-08-27T12:27:19.655Z,59.11
2014-08-27T12:28:24.329Z,59.61
2014-08-27T12:29:29.018Z,60.33
2014-08-27T12:30:33.708Z,59.36
2014-08-27T12:31:38.398Z,59.84
2014-08-27T12:32:43.071Z,57.97
2014-08-27T12:33:47.074Z,57.42
2014-08-27T12:34:51.764Z,56.82
2014-08-27T12:35:56.437Z,57.6
2014-08-27T12:37:01.127Z,57.19
2014-08-27T12:38:05.800Z,58.89
2014-08-27T12:39:10.490Z,57.76
2014-08-27T12:40:15.180Z,58.76
2014-08-27T12:41:19.869Z,58.75
2014-08-27T12:42:24.543Z,58.3
2014-08-27T12:43:29.233Z,58.12
2014-08-27T12:44:33.923Z,58.11
2014-08-27T12:45:38.596Z,59.25
2014-08-27T12:46:43.583Z,58.6
2014-08-27T12:47:48.272Z,58.97
2014-08-27T12:48:53.258Z,58.25
2014-08-27T12:49:58.230Z,61
2014-08-27T12:51:03.216Z,61.44
2014-08-27T12:52:08.203Z,61.92
2014-08-27T12:53:12.891Z,59.19
2014-08-27T12:54:17.566Z,60.35
2014-08-27T12:55:22.256Z,59.92
2014-08-27T12:56:26.945Z,58.63
2014-08-27T12:57:31.635Z,59.34
2014-08-27T12:58:36.622Z,60.73
2014-08-27T12:59:41.311Z,59.91
2014-08-27T13:00:46.001Z,58.93
2014-08-27T13:01:50.674Z,58.03
2014-08-27T13:02:55.364Z,59.22
2014-08-27T13:04:00.053Z,58.97
2014-08-27T13:05:04.742Z,58.2
2014-08-27T13:06:08.744Z,58.2
2014-08-27T13:07:13.435Z,57.39
2014-08-27T13:08:18.420Z,58.39
2014-08-27T13:09:23.111Z,57.74
2014-08-27T13:10:27.785Z,57.65
2014-08-27T13:11:32.474Z,57.29
2014-08-27T13:12:37.164Z,58.58
2014-08-27T13:13:41.854Z,56.25
2014-08-27T13:14:46.527Z,58.6
2014-08-27T13:15:51.514Z,58.61
2014-08-27T13:16:56.203Z,57.1
2014-08-27T13:18:00.893Z,57.2
2014-08-27T13:19:05.583Z,54.97
2014-08-27T13:20:10.568Z,54.31
2014-08-27T13:21:15.556Z,55.29
2014-08-27T13:22:20.245Z,54.52
2014-08-27T13:23:24.935Z,55.44
2014-08-27T13:24:29.624Z,53.55
2014-08-27T13:25:34.298Z,54.59
2014-08-27T13:26:38.988Z,53.81
2014-08-27T13:27:43.677Z,55.08
2014-08-27T13:28:48.398Z,54.41
2014-08-27T13:29:53.087Z,54.79
2014-08-27T13:30:57.777Z,56.46
2014-08-27T13:32:02.748Z,55.26
2014-08-27T13:33:07.437Z,54.96
2014-08-27T13:34:12.128Z,54.36
2014-08-27T13:35:16.817Z,51.93
2014-08-27T13:36:21.506Z,51.59
2014-08-27T13:37:26.196Z,53.4
2014-08-27T13:38:31.182Z,53.7
2014-08-27T13:39:35.872Z,52.87
2014-08-27T13:40:40.858Z,53.67
2014-08-27T13:41:45.548Z,53.79
2014-08-27T13:42:50.222Z,53.9
2014-08-27T13:43:54.911Z,56.21
2014-08-27T13:44:59.616Z,54.71
2014-08-27T13:46:04.306Z,53.13
2014-08-27T13:47:08.980Z,53
2014-08-27T13:48:13.966Z,54.78
2014-08-27T13:49:18.657Z,53.86
2014-08-27T13:50:23.658Z,53.57
2014-08-27T13:51:28.645Z,53.47
2014-08-27T13:52:33.333Z,52.65
2014-08-27T13:53:38.024Z,53.13
2014-08-27T13:54:43.010Z,52.81
2014-08-27T13:55:47.997Z,54.04
2014-08-27T13:56:52.686Z,53.26
2014-08-27T13:57:57.376Z,53.77